Time;durP1;ratioP1;P1;durP2;ratioP2;P2;SDS_P1;SDS_P2;PMS_P1;PMS_P2;Temp;Humidity;BMP_temperature;BMP_pressure;BME280_temperature;BME280_humidity;BME280_pressure;Samples;Min_cycle;Max_cycle;Signal;HPM_P1;HPM_P2
2021/07/14 00:02:02;;;;;;;;;;;;;;;18.62;75.12;99512.31;5092947;28;809;-62
2021/07/14 00:04:28;;;;;;;;;;;;;;;18.45;75.23;99518.19;5092961;28;885;-62
2021/07/14 00:06:55;;;;;;;;;;;;;;;18.36;75.63;99512.56;5092986;28;888;-62
2021/07/14 00:09:21;;;;;;;;;;;;;;;18.23;75.91;99507.09;5092980;28;880;-62
2021/07/14 00:11:57;;;;;;;;;;;;;;;18.15;76.35;99511.44;5092976;28;791;-62
2021/07/14 00:14:35;;;;;;;;;;;;;;;18.07;76.64;99518.56;5092286;28;2035;-62
2021/07/14 00:17:25;;;;;;;;;;;;;;;18.08;76.72;99514.53;5092603;28;916;-62
2021/07/14 00:22:39;;;;;;;;;;;;;;;18.28;76.37;99517.69;5093201;28;688;-63
2021/07/14 00:25:07;;;;;;;;;;;;;;;18.34;76.50;99515.81;5092571;28;806;-62
2021/07/14 00:27:39;;;;;;;;;;;;;;;18.35;76.27;99520.19;5092528;28;920;-62
2021/07/14 00:30:09;;;;;;;;;;;;;;;18.34;76.40;99515.06;5092394;28;846;-62
2021/07/14 00:32:36;;;;;;;;;;;;;;;18.32;76.55;99512.72;5092310;28;830;-63
2021/07/14 00:35:03;;;;;;;;;;;;;;;18.17;76.67;99520.91;5092238;28;1886;-62
2021/07/14 00:37:29;;;;;;;;;;;;;;;18.10;76.99;99526.81;5092250;28;802;-62
2021/07/14 00:39:56;;;;;;;;;;;;;;;18.01;77.29;99521.19;5092245;28;850;-62
2021/07/14 00:42:26;;;;;;;;;;;;;;;17.95;77.61;99525.81;5092175;28;861;-62
2021/07/14 00:44:56;;;;;;;;;;;;;;;17.87;78.03;99514.13;5092179;28;822;-62
2021/07/14 00:47:28;;;;;;;;;;;;;;;17.82;78.07;99517.53;5091991;28;869;-62
2021/07/14 00:49:55;;;;;;;;;;;;;;;17.81;78.10;99513.13;5092087;28;819;-62
2021/07/14 00:52:23;;;;;;;;;;;;;;;17.84;78.35;99526.25;5092031;28;803;-62
2021/07/14 00:54:50;;;;;;;;;;;;;;;17.89;78.25;99511.66;5092344;28;1937;-62
2021/07/14 00:57:17;;;;;;;;;;;;;;;17.99;78.35;99518.06;5092278;28;747;-62
2021/07/14 00:59:44;;;;;;;;;;;;;;;18.20;78.28;99516.44;5091949;28;1312;-63
2021/07/14 01:02:12;;;;;;;;;;;;;;;18.42;77.84;99527.50;5092379;28;939;-62
2021/07/14 01:04:41;;;;;;;;;;;;;;;18.56;77.47;99529.72;5092346;28;846;-63
2021/07/14 01:07:11;;;;;;;;;;;;;;;18.59;77.31;99528.00;5091900;28;810;-62
2021/07/14 01:09:47;;;;;;;;;;;;;;;18.57;77.31;99527.69;5092102;28;869;-62
2021/07/14 01:12:20;;;;;;;;;;;;;;;18.48;77.29;99522.88;5091773;28;870;-62
2021/07/14 01:14:52;;;;;;;;;;;;;;;18.30;77.83;99534.00;5091301;28;1898;-63
2021/07/14 01:17:21;;;;;;;;;;;;;;;18.12;78.22;99529.16;5091719;28;869;-63
2021/07/14 01:20:03;;;;;;;;;;;;;;;18.02;78.80;99519.94;5091671;28;846;-62
2021/07/14 01:22:48;;;;;;;;;;;;;;;18.05;78.89;99527.41;5091861;28;787;-63
2021/07/14 01:25:21;;;;;;;;;;;;;;;18.21;78.68;99525.59;5091633;28;818;-63
2021/07/14 01:27:48;;;;;;;;;;;;;;;18.31;78.43;99527.97;5091636;28;861;-62
2021/07/14 01:30:15;;;;;;;;;;;;;;;18.33;78.17;99533.09;5091642;28;897;-62
2021/07/14 01:32:43;;;;;;;;;;;;;;;18.34;78.15;99526.25;5095484;28;830;-63
2021/07/14 01:35:31;;;;;;;;;;;;;;;18.29;78.17;99529.66;5095577;28;1948;-62
2021/07/14 01:37:58;;;;;;;;;;;;;;;18.21;78.33;99531.97;5095887;28;819;-62
2021/07/14 01:40:25;;;;;;;;;;;;;;;18.19;78.48;99533.66;5095690;28;865;-62
2021/07/14 01:42:59;;;;;;;;;;;;;;;18.16;78.46;99533.34;5095475;28;951;-62
2021/07/14 01:45:28;;;;;;;;;;;;;;;18.26;78.42;99533.38;5095583;28;797;-62
2021/07/14 01:47:55;;;;;;;;;;;;;;;18.40;78.10;99532.03;5095516;28;821;-62
2021/07/14 01:50:22;;;;;;;;;;;;;;;18.50;77.82;99528.00;5095486;28;858;-62
2021/07/14 01:52:50;;;;;;;;;;;;;;;18.53;77.54;99529.88;5095273;28;821;-63
2021/07/14 01:55:17;;;;;;;;;;;;;;;18.46;77.51;99524.56;5095330;28;1885;-63
2021/07/14 01:57:44;;;;;;;;;;;;;;;18.29;77.71;99532.47;5095209;28;866;-63
2021/07/14 02:00:12;;;;;;;;;;;;;;;18.11;77.95;99538.75;5095248;28;873;-62
2021/07/14 02:02:51;;;;;;;;;;;;;;;17.99;78.35;99529.25;5095192;28;830;-63
2021/07/14 02:05:19;;;;;;;;;;;;;;;17.86;78.60;99526.56;5095033;28;874;-62
2021/07/14 02:07:45;;;;;;;;;;;;;;;17.75;79.00;99517.78;5095170;28;882;-63
2021/07/14 02:10:12;;;;;;;;;;;;;;;17.68;79.37;99521.63;5095106;28;830;-63
2021/07/14 02:12:40;;;;;;;;;;;;;;;17.76;79.59;99513.75;5095059;28;844;-63
2021/07/14 02:15:07;;;;;;;;;;;;;;;17.94;79.38;99521.44;5094581;28;1902;-62
2021/07/14 02:17:39;;;;;;;;;;;;;;;18.09;79.15;99525.25;5094969;28;877;-63
2021/07/14 02:20:08;;;;;;;;;;;;;;;18.23;79.03;99523.13;5094895;28;818;-62
2021/07/14 02:22:34;;;;;;;;;;;;;;;18.33;78.74;99525.47;5095015;28;810;-63
2021/07/14 02:25:01;;;;;;;;;;;;;;;18.43;78.83;99529.06;5094714;28;850;-63
2021/07/14 02:27:28;;;;;;;;;;;;;;;18.52;78.70;99522.69;5094826;28;893;-63
2021/07/14 02:29:54;;;;;;;;;;;;;;;18.57;78.52;99525.66;5094760;28;854;-62
2021/07/14 02:32:22;;;;;;;;;;;;;;;18.58;78.28;99520.84;5094661;28;861;-63
2021/07/14 02:34:50;;;;;;;;;;;;;;;18.54;78.20;99523.00;5094491;28;1885;-63
2021/07/14 02:37:24;;;;;;;;;;;;;;;18.40;78.38;99524.41;5094590;28;830;-63
2021/07/14 02:39:52;;;;;;;;;;;;;;;18.22;78.68;99524.34;5095323;28;786;-62
2021/07/14 02:42:27;;;;;;;;;;;;;;;18.09;79.04;99524.47;5094161;28;845;-62
2021/07/14 02:44:54;;;;;;;;;;;;;;;18.03;79.03;99515.91;5094446;28;834;-62
2021/07/14 02:47:21;;;;;;;;;;;;;;;17.98;79.24;99512.94;5094349;28;836;-62
2021/07/14 02:49:48;;;;;;;;;;;;;;;17.91;79.82;99508.41;5094356;28;884;-63
2021/07/14 02:52:15;;;;;;;;;;;;;;;17.89;80.07;99513.69;5094476;28;807;-63
2021/07/14 02:54:43;;;;;;;;;;;;;;;17.96;80.09;99507.78;5094131;28;1881;-62
2021/07/14 02:57:13;;;;;;;;;;;;;;;18.18;79.69;99516.13;5094195;28;806;-62
2021/07/14 02:59:45;;;;;;;;;;;;;;;18.29;79.62;99504.50;5092846;28;1165;-62
2021/07/14 03:02:13;;;;;;;;;;;;;;;18.55;79.23;99502.19;5094096;28;826;-62
2021/07/14 03:04:45;;;;;;;;;;;;;;;18.74;78.55;99517.00;5094292;28;814;-62
2021/07/14 03:07:12;;;;;;;;;;;;;;;18.69;78.31;99521.19;5093959;28;889;-62
2021/07/14 03:09:41;;;;;;;;;;;;;;;18.52;78.33;99520.69;5093918;28;810;-62
2021/07/14 03:12:11;;;;;;;;;;;;;;;18.41;78.73;99528.75;5093899;28;850;-62
2021/07/14 03:14:40;;;;;;;;;;;;;;;18.41;78.83;99537.13;5093419;28;1975;-63
2021/07/14 03:17:08;;;;;;;;;;;;;;;18.48;78.63;99534.06;5093975;28;819;-63
2021/07/14 03:19:35;;;;;;;;;;;;;;;18.60;78.47;99535.16;5093770;28;873;-63
2021/07/14 03:22:01;;;;;;;;;;;;;;;18.72;78.21;99531.44;5093631;28;834;-63
2021/07/14 03:24:28;;;;;;;;;;;;;;;18.86;77.72;99534.91;5093607;28;842;-63
2021/07/14 03:26:56;;;;;;;;;;;;;;;18.98;77.50;99539.56;5093727;28;920;-62
2021/07/14 03:29:23;;;;;;;;;;;;;;;19.13;77.01;99537.69;5093609;28;787;-63
2021/07/14 03:31:50;;;;;;;;;;;;;;;19.30;76.53;99535.34;5093490;28;889;-62
2021/07/14 03:34:17;;;;;;;;;;;;;;;19.48;76.22;99544.97;5093513;28;846;-62
2021/07/14 03:36:45;;;;;;;;;;;;;;;19.68;75.42;99541.66;5093386;28;1945;-63
2021/07/14 03:39:12;;;;;;;;;;;;;;;19.89;74.86;99539.91;5093400;28;814;-62
2021/07/14 03:41:39;;;;;;;;;;;;;;;20.17;74.12;99532.16;5092108;28;1436;-62
2021/07/14 03:44:07;;;;;;;;;;;;;;;20.52;72.87;99540.06;5093534;28;814;-62
2021/07/14 03:46:33;;;;;;;;;;;;;;;20.85;71.87;99530.81;5093214;28;888;-62
2021/07/14 03:49:00;;;;;;;;;;;;;;;21.23;70.99;99537.66;5093251;28;842;-62
2021/07/14 03:51:27;;;;;;;;;;;;;;;21.41;70.21;99534.69;5093061;28;897;-62
2021/07/14 03:53:54;;;;;;;;;;;;;;;21.46;70.14;99536.84;5092765;28;826;-62
2021/07/14 03:56:25;;;;;;;;;;;;;;;21.32;70.35;99538.38;5092364;28;1921;-62
2021/07/14 03:58:52;;;;;;;;;;;;;;;21.20;70.88;99536.59;5092981;28;802;-62
2021/07/14 04:01:21;;;;;;;;;;;;;;;21.19;71.02;99546.31;5091688;28;1394;-62
2021/07/14 04:03:48;;;;;;;;;;;;;;;21.16;70.89;99544.44;5092869;28;861;-62
2021/07/14 04:06:14;;;;;;;;;;;;;;;21.09;70.85;99545.59;5092961;28;865;-63
2021/07/14 04:08:44;;;;;;;;;;;;;;;20.92;71.71;99544.50;5092787;28;794;-62
2021/07/14 04:11:11;;;;;;;;;;;;;;;20.89;71.93;99539.81;5093337;28;763;-62
2021/07/14 04:13:39;;;;;;;;;;;;;;;20.90;71.66;99547.78;5093002;28;1089;-63
2021/07/14 04:16:05;;;;;;;;;;;;;;;20.87;71.62;99545.13;5092572;28;1981;-63
2021/07/14 04:18:31;;;;;;;;;;;;;;;20.89;71.59;99546.22;5091694;28;1316;-62
2021/07/14 04:20:58;;;;;;;;;;;;;;;20.94;71.64;99551.19;5092548;28;901;-63
2021/07/14 04:23:27;;;;;;;;;;;;;;;21.03;71.66;99553.13;5092759;28;802;-63
2021/07/14 04:25:54;;;;;;;;;;;;;;;21.26;71.45;99559.19;5092891;28;865;-63
2021/07/14 04:28:20;;;;;;;;;;;;;;;21.65;70.49;99559.16;5093276;28;826;-63
2021/07/14 04:30:47;;;;;;;;;;;;;;;22.19;69.18;99556.94;5092779;28;842;-63
2021/07/14 04:33:13;;;;;;;;;;;;;;;22.65;68.11;99566.84;5092793;28;830;-63
2021/07/14 04:35:40;;;;;;;;;;;;;;;23.03;66.84;99569.41;5092188;28;1929;-63
2021/07/14 04:38:07;;;;;;;;;;;;;;;23.47;65.25;99567.56;5092261;28;830;-63
2021/07/14 04:40:34;;;;;;;;;;;;;;;23.93;64.29;99571.59;5092186;28;846;-63
2021/07/14 04:43:00;;;;;;;;;;;;;;;24.34;63.09;99574.94;5092202;28;842;-62
2021/07/14 04:45:27;;;;;;;;;;;;;;;24.19;63.10;99580.00;5092136;28;798;-62
2021/07/14 04:47:54;;;;;;;;;;;;;;;23.90;64.02;99579.00;5092061;28;877;-62
2021/07/14 04:50:20;;;;;;;;;;;;;;;23.69;64.23;99578.28;5092162;28;900;-62
2021/07/14 04:52:46;;;;;;;;;;;;;;;23.55;65.10;99584.81;5092049;28;865;-62
2021/07/14 04:55:13;;;;;;;;;;;;;;;23.56;65.32;99580.72;5091917;28;1890;-62
2021/07/14 04:57:40;;;;;;;;;;;;;;;23.58;65.31;99575.38;5091918;28;904;-62
2021/07/14 05:00:07;;;;;;;;;;;;;;;23.75;65.13;99586.81;5091948;28;857;-62
2021/07/14 05:02:34;;;;;;;;;;;;;;;23.94;64.64;99585.22;5091871;28;802;-62
2021/07/14 05:05:01;;;;;;;;;;;;;;;24.25;64.47;99598.50;5091850;28;889;-62
2021/07/14 05:15:47;;;;;;;;;;;;;;;27.66;55.85;99596.91;5030449;28;2005;-62
2021/07/14 05:18:14;;;;;;;;;;;;;;;28.26;54.45;99598.25;5031570;28;1083;-62
2021/07/14 05:20:41;;;;;;;;;;;;;;;28.95;52.07;99597.00;5031592;28;904;-62
2021/07/14 05:23:08;;;;;;;;;;;;;;;29.36;51.53;99593.16;5031643;28;864;-61
2021/07/14 05:25:35;;;;;;;;;;;;;;;29.54;50.65;99588.00;5031560;28;814;-62
2021/07/14 05:28:02;;;;;;;;;;;;;;;29.79;50.30;99606.53;5031635;28;846;-62
2021/07/14 05:30:28;;;;;;;;;;;;;;;30.07;49.43;99596.75;5031529;28;857;-62
2021/07/14 05:32:56;;;;;;;;;;;;;;;30.35;48.39;99612.63;5031675;28;877;-62
2021/07/14 05:35:23;;;;;;;;;;;;;;;30.61;48.06;99612.63;5031373;28;1914;-62
2021/07/14 05:37:49;;;;;;;;;;;;;;;31.14;46.11;99611.88;5031423;28;1001;-62
2021/07/14 05:40:16;;;;;;;;;;;;;;;31.94;44.89;99614.47;5031760;28;873;-62
2021/07/14 05:42:43;;;;;;;;;;;;;;;32.84;42.63;99615.03;5031755;28;822;-62
2021/07/14 05:45:09;;;;;;;;;;;;;;;33.75;40.90;99613.88;5031508;28;835;-62
2021/07/14 05:47:36;;;;;;;;;;;;;;;34.58;39.54;99616.59;5031599;28;857;-62
2021/07/14 05:50:04;;;;;;;;;;;;;;;35.08;38.34;99616.91;5031579;28;881;-62
2021/07/14 05:52:32;;;;;;;;;;;;;;;35.55;37.89;99620.34;5031557;28;938;-61
2021/07/14 05:54:58;;;;;;;;;;;;;;;35.85;36.96;99621.50;5031312;28;1910;-61
2021/07/14 05:57:25;;;;;;;;;;;;;;;36.22;35.47;99621.84;5031374;28;822;-61
2021/07/14 05:59:52;;;;;;;;;;;;;;;36.52;35.20;99621.56;5031470;28;854;-61
2021/07/14 06:02:18;;;;;;;;;;;;;;;36.84;34.68;99614.16;5031425;28;806;-61
2021/07/14 06:04:44;;;;;;;;;;;;;;;36.79;34.74;99620.97;5031661;28;893;-61
2021/07/14 06:07:11;;;;;;;;;;;;;;;36.55;35.26;99619.63;5031483;28;810;-61
2021/07/14 06:09:39;;;;;;;;;;;;;;;36.16;35.87;99617.09;5031878;28;822;-61
2021/07/14 06:12:07;;;;;;;;;;;;;;;36.26;35.28;99613.56;5031258;28;823;-61
2021/07/14 06:14:33;;;;;;;;;;;;;;;36.50;34.20;99621.41;5031094;28;1914;-61
2021/07/14 06:17:01;;;;;;;;;;;;;;;36.57;33.85;99620.56;5031308;28;846;-61
2021/07/14 06:19:28;;;;;;;;;;;;;;;36.65;33.93;99623.38;5034396;28;834;-60
2021/07/14 06:21:55;;;;;;;;;;;;;;;36.88;33.78;99613.75;5034771;28;1066;-60
2021/07/14 06:24:21;;;;;;;;;;;;;;;37.29;33.16;99608.47;5035240;28;810;-60
2021/07/14 06:26:50;;;;;;;;;;;;;;;37.71;32.84;99604.66;5034868;28;818;-60
2021/07/14 06:29:17;;;;;;;;;;;;;;;38.05;31.62;99606.66;5034508;28;941;-60
2021/07/14 06:31:45;;;;;;;;;;;;;;;38.12;31.98;99613.66;5034777;28;845;-60
2021/07/14 06:34:13;;;;;;;;;;;;;;;38.02;31.04;99613.56;5034569;28;946;-61
2021/07/14 06:36:40;;;;;;;;;;;;;;;37.53;31.18;99613.31;5034349;28;1938;-60
2021/07/14 06:39:07;;;;;;;;;;;;;;;37.46;31.05;99610.56;5034481;28;826;-61
2021/07/14 06:41:34;;;;;;;;;;;;;;;36.97;30.88;99616.69;5034300;28;920;-61
2021/07/14 06:44:01;;;;;;;;;;;;;;;36.38;32.10;99606.75;5034243;28;854;-61
2021/07/14 06:46:28;;;;;;;;;;;;;;;36.25;32.00;99612.03;5034250;28;995;-61
2021/07/14 06:48:55;;;;;;;;;;;;;;;36.20;32.21;99607.31;5034473;28;881;-62
2021/07/14 06:51:22;;;;;;;;;;;;;;;35.80;32.86;99608.16;5034205;28;822;-61
2021/07/14 06:53:48;;;;;;;;;;;;;;;35.68;32.91;99611.47;5034206;28;850;-61
2021/07/14 06:56:15;;;;;;;;;;;;;;;36.04;33.24;99618.91;5034060;28;1886;-62
2021/07/14 06:58:42;;;;;;;;;;;;;;;36.04;32.84;99621.78;5033997;28;930;-63
2021/07/14 07:01:08;;;;;;;;;;;;;;;35.40;33.24;99620.41;5034031;28;897;-62
2021/07/14 07:03:36;;;;;;;;;;;;;;;35.13;34.64;99615.94;5034272;28;806;-61
2021/07/14 07:06:04;;;;;;;;;;;;;;;35.48;34.11;99624.78;5033857;28;904;-63
2021/07/14 07:08:31;;;;;;;;;;;;;;;35.40;34.74;99623.28;5034051;28;830;-61
2021/07/14 07:10:57;;;;;;;;;;;;;;;35.80;34.71;99626.16;5033913;28;834;-62
2021/07/14 07:13:24;;;;;;;;;;;;;;;35.40;33.67;99624.06;5033625;28;1331;-62
2021/07/14 07:15:53;;;;;;;;;;;;;;;35.40;33.77;99624.06;5033659;28;1981;-62
2021/07/14 07:18:21;;;;;;;;;;;;;;;35.40;33.77;99626.16;5033738;28;850;-61
2021/07/14 07:20:48;;;;;;;;;;;;;;;35.78;34.12;99625.97;5033656;28;874;-62
2021/07/14 07:23:15;;;;;;;;;;;;;;;35.66;33.16;99631.44;5033549;28;925;-62
2021/07/14 07:25:43;;;;;;;;;;;;;;;35.32;33.89;99629.84;5032225;28;817;-61
2021/07/14 07:28:18;;;;;;;;;;;;;;;35.23;33.74;99632.56;5033486;28;806;-63
2021/07/14 07:30:44;;;;;;;;;;;;;;;34.93;34.94;99628.41;5033308;28;889;-63
2021/07/14 07:33:11;;;;;;;;;;;;;;;35.08;34.30;99634.13;5033345;28;886;-61
2021/07/14 07:35:37;;;;;;;;;;;;;;;35.46;34.49;99633.22;5033432;28;1956;-62
2021/07/14 07:38:05;;;;;;;;;;;;;;;36.02;34.11;99624.47;5033278;28;818;-61
2021/07/14 07:40:31;;;;;;;;;;;;;;;36.82;33.43;99625.50;5033219;28;905;-62
2021/07/14 07:42:58;;;;;;;;;;;;;;;36.66;32.44;99630.69;5033475;28;861;-62
2021/07/14 07:45:24;;;;;;;;;;;;;;;36.24;32.35;99624.91;5033129;28;917;-62
2021/07/14 07:47:51;;;;;;;;;;;;;;;35.94;33.99;99620.91;5033168;28;842;-62
2021/07/14 07:50:18;;;;;;;;;;;;;;;35.60;34.27;99618.59;5033021;28;929;-64
2021/07/14 07:52:44;;;;;;;;;;;;;;;35.73;34.08;99618.34;5033047;28;814;-62
2021/07/14 07:55:11;;;;;;;;;;;;;;;36.03;34.68;99616.59;5032819;28;1882;-61
2021/07/14 07:57:38;;;;;;;;;;;;;;;36.41;32.56;99616.31;5032914;28;914;-63
2021/07/14 08:00:11;;;;;;;;;;;;;;;36.04;34.03;99616.03;5032809;28;806;-63
2021/07/14 08:02:39;;;;;;;;;;;;;;;35.94;33.77;99615.16;5032872;28;818;-64
2021/07/14 08:05:06;;;;;;;;;;;;;;;35.77;34.20;99607.22;5032962;28;818;-63
2021/07/14 08:07:33;;;;;;;;;;;;;;;35.99;34.28;99609.13;5032729;28;853;-61
2021/07/14 08:09:59;;;;;;;;;;;;;;;36.52;31.79;99617.94;5032642;28;839;-62
2021/07/14 08:12:25;;;;;;;;;;;;;;;36.75;29.81;99618.50;5032653;28;869;-62
2021/07/14 08:14:52;;;;;;;;;;;;;;;36.44;29.62;99611.47;5032339;28;1910;-61
2021/07/14 08:17:19;;;;;;;;;;;;;;;36.95;29.78;99619.41;5032595;28;818;-63
2021/07/14 08:19:47;;;;;;;;;;;;;;;36.69;30.35;99620.09;5032705;28;834;-64
2021/07/14 08:22:14;;;;;;;;;;;;;;;36.22;29.66;99621.84;5031223;28;1297;-62
2021/07/14 08:24:40;;;;;;;;;;;;;;;36.23;30.15;99621.25;5032666;28;858;-62
2021/07/14 08:27:08;;;;;;;;;;;;;;;36.31;30.51;99616.19;5047804;28;861;-62
2021/07/14 08:29:35;;;;;;;;;;;;;;;36.94;29.33;99617.16;5032273;28;858;-62
2021/07/14 08:32:02;;;;;;;;;;;;;;;36.66;29.19;99610.53;5031137;28;1306;-61
2021/07/14 08:34:29;;;;;;;;;;;;;;;36.71;30.15;99623.91;5032495;28;881;-63
2021/07/14 08:36:58;;;;;;;;;;;;;;;36.34;29.58;99623.66;5032101;28;1890;-62
2021/07/14 08:39:25;;;;;;;;;;;;;;;36.54;29.74;99615.22;5032295;28;972;-61
2021/07/14 08:41:53;;;;;;;;;;;;;;;36.76;29.27;99613.50;5032205;28;756;-63
2021/07/14 08:44:21;;;;;;;;;;;;;;;36.44;29.52;99612.25;5032292;28;819;-62
2021/07/14 08:46:48;;;;;;;;;;;;;;;36.36;30.46;99615.22;5032193;28;921;-62
2021/07/14 08:49:13;;;;;;;;;;;;;;;36.28;30.14;99620.25;5032289;28;818;-61
2021/07/14 08:51:42;;;;;;;;;;;;;;;36.78;31.20;99616.53;5047210;28;865;-61
2021/07/14 08:54:09;;;;;;;;;;;;;;;36.67;29.89;99611.28;5032320;28;822;-62
2021/07/14 08:56:37;;;;;;;;;;;;;;;36.70;29.70;99599.38;5032081;28;1890;-64
2021/07/14 08:59:03;;;;;;;;;;;;;;;36.14;30.11;99607.53;5032144;28;814;-63
2021/07/14 09:01:30;;;;;;;;;;;;;;;35.48;30.58;99610.41;5032131;28;917;-61
2021/07/14 09:03:57;;;;;;;;;;;;;;;35.37;31.20;99608.75;5032029;28;830;-62
2021/07/14 09:06:24;;;;;;;;;;;;;;;35.67;32.42;99612.06;5032087;28;901;-61
2021/07/14 09:08:50;;;;;;;;;;;;;;;36.08;30.90;99606.97;5031825;28;787;-62
2021/07/14 09:11:18;;;;;;;;;;;;;;;36.18;30.52;99611.50;5032175;28;774;-61
2021/07/14 09:13:46;;;;;;;;;;;;;;;36.21;30.72;99614.56;5032024;28;1208;-62
2021/07/14 09:16:34;;;;;;;;;;;;;;;35.91;30.91;99616.31;5031732;28;1915;-61
2021/07/14 09:19:12;;;;;;;;;;;;;;;35.92;31.27;99607.09;5030429;28;1183;-63
2021/07/14 09:21:40;;;;;;;;;;;;;;;35.28;31.59;99605.75;5031471;28;981;-62
2021/07/14 09:24:27;;;;;;;;;;;;;;;35.21;32.70;99607.31;5031637;28;857;-61
2021/07/14 09:26:54;;;;;;;;;;;;;;;36.06;32.05;99606.78;5027603;28;1235;-62
2021/07/14 09:29:21;;;;;;;;;;;;;;;36.09;32.25;99605.63;5031431;28;976;-61
2021/07/14 09:31:48;;;;;;;;;;;;;;;36.12;31.98;99604.44;5031798;28;857;-62
2021/07/14 09:34:25;;;;;;;;;;;;;;;35.88;33.42;99592.38;5031437;28;865;-61
2021/07/14 09:36:55;;;;;;;;;;;;;;;35.53;32.76;99591.44;5031633;28;1886;-61
2021/07/14 09:39:32;;;;;;;;;;;;;;;35.37;33.19;99596.50;5031254;28;1039;-62
2021/07/14 09:42:06;;;;;;;;;;;;;;;35.05;33.93;99603.69;5031525;28;869;-62
2021/07/14 09:44:32;;;;;;;;;;;;;;;34.52;35.14;99601.69;5031589;28;826;-62
2021/07/14 09:47:11;;;;;;;;;;;;;;;34.59;37.27;99589.47;5031433;28;822;-62
2021/07/14 09:49:38;;;;;;;;;;;;;;;34.15;36.02;99598.28;5031378;28;818;-62
2021/07/14 09:52:06;;;;;;;;;;;;;;;33.65;37.94;99606.41;5032200;28;798;-61
2021/07/14 09:54:32;;;;;;;;;;;;;;;33.58;37.31;99601.41;5035308;28;818;-61
2021/07/14 09:57:06;;;;;;;;;;;;;;;33.44;38.09;99600.81;5035019;28;1886;-63
2021/07/14 09:59:33;;;;;;;;;;;;;;;33.40;38.14;99609.03;5035193;28;881;-61
2021/07/14 10:02:00;;;;;;;;;;;;;;;33.18;38.45;99604.72;5035123;28;901;-63
2021/07/14 10:04:30;;;;;;;;;;;;;;;32.95;38.25;99605.38;5035097;28;916;-61
2021/07/14 10:07:07;;;;;;;;;;;;;;;32.97;39.93;99605.56;5035243;28;877;-62
2021/07/14 10:09:33;;;;;;;;;;;;;;;33.01;38.96;99605.97;5033515;28;1465;-64
2021/07/14 10:12:19;;;;;;;;;;;;;;;32.81;39.54;99595.38;5034906;28;941;-63
2021/07/14 10:14:47;;;;;;;;;;;;;;;32.59;39.81;99593.91;5034583;28;1993;-63
2021/07/14 10:17:16;;;;;;;;;;;;;;;32.59;40.11;99596.78;5034945;28;862;-62
2021/07/14 10:19:42;;;;;;;;;;;;;;;32.72;40.69;99594.56;5034788;28;826;-62
2021/07/14 10:22:09;;;;;;;;;;;;;;;33.06;39.13;99590.72;5034955;28;869;-62
2021/07/14 10:24:35;;;;;;;;;;;;;;;33.55;38.81;99601.22;5034693;28;826;-63
2021/07/14 10:27:02;;;;;;;;;;;;;;;33.61;37.43;99597.44;5034669;28;834;-62
2021/07/14 10:29:29;;;;;;;;;;;;;;;33.85;38.54;99593.28;5034631;28;890;-63
2021/07/14 10:31:57;;;;;;;;;;;;;;;33.43;38.28;99597.16;5033182;28;1438;-62
2021/07/14 10:34:24;;;;;;;;;;;;;;;33.15;39.53;99593.06;5034564;28;814;-63
2021/07/14 10:36:51;;;;;;;;;;;;;;;32.77;41.18;99587.13;5034408;28;1882;-61
2021/07/14 10:39:18;;;;;;;;;;;;;;;33.63;39.32;99584.09;5034290;28;862;-63
2021/07/14 10:41:45;;;;;;;;;;;;;;;32.92;39.02;99577.88;5034386;28;834;-64
2021/07/14 10:44:14;;;;;;;;;;;;;;;32.17;41.05;99585.38;5034366;28;993;-62
2021/07/14 10:46:41;;;;;;;;;;;;;;;32.13;40.81;99580.00;5034491;28;889;-63
2021/07/14 10:49:09;;;;;;;;;;;;;;;32.02;41.14;99586.78;5034291;28;810;-62
2021/07/14 10:51:36;;;;;;;;;;;;;;;32.11;42.54;99580.59;5034196;28;890;-62
2021/07/14 10:54:10;;;;;;;;;;;;;;;32.87;41.31;99584.53;5034050;28;927;-62
2021/07/14 10:56:46;;;;;;;;;;;;;;;33.22;38.89;99585.06;5034058;28;1945;-62
2021/07/14 10:59:13;;;;;;;;;;;;;;;33.32;39.15;99583.22;5034044;28;889;-62
2021/07/14 11:01:48;;;;;;;;;;;;;;;32.85;40.38;99581.47;5034080;28;838;-62
2021/07/14 11:04:26;;;;;;;;;;;;;;;33.27;40.31;99572.69;5033335;28;885;-62
2021/07/14 11:06:56;;;;;;;;;;;;;;;33.71;39.48;99569.75;5033808;28;850;-63
2021/07/14 11:09:32;;;;;;;;;;;;;;;33.95;38.15;99562.72;5033846;28;862;-62
2021/07/14 11:12:00;;;;;;;;;;;;;;;34.50;37.92;99564.22;5033731;28;984;-62
2021/07/14 11:14:37;;;;;;;;;;;;;;;34.07;38.68;99574.56;5033577;28;1201;-62
2021/07/14 11:17:04;;;;;;;;;;;;;;;32.77;40.27;99572.81;5033641;28;1907;-62
2021/07/14 11:19:49;;;;;;;;;;;;;;;32.24;41.35;99576.88;5033683;28;1001;-62
2021/07/14 11:22:17;;;;;;;;;;;;;;;33.21;40.45;99572.88;5033621;28;802;-62
2021/07/14 11:24:46;;;;;;;;;;;;;;;34.04;39.99;99567.88;5033647;28;881;-63
2021/07/14 11:27:19;;;;;;;;;;;;;;;34.42;38.38;99567.13;5033570;28;877;-62
2021/07/14 11:29:46;;;;;;;;;;;;;;;34.77;38.94;99559.56;5033481;28;853;-63
2021/07/14 11:32:33;;;;;;;;;;;;;;;34.96;36.87;99562.00;5033472;28;857;-63
2021/07/14 11:35:01;;;;;;;;;;;;;;;35.17;37.32;99558.88;5029311;28;1882;-62
2021/07/14 11:37:31;;;;;;;;;;;;;;;35.70;38.06;99551.31;5033210;28;936;-62
2021/07/14 11:40:16;;;;;;;;;;;;;;;35.81;36.86;99558.69;5033348;28;902;-63
2021/07/14 11:43:01;;;;;;;;;;;;;;;35.61;36.58;99551.13;5033245;28;857;-64
2021/07/14 11:45:27;;;;;;;;;;;;;;;35.52;36.64;99559.03;5033230;28;822;-62
2021/07/14 11:48:06;;;;;;;;;;;;;;;35.96;37.58;99558.56;5033177;28;971;-62
2021/07/14 11:50:44;;;;;;;;;;;;;;;36.48;35.71;99552.16;5033240;28;542;-62
2021/07/14 11:56:02;;;;;;;;;;;;;;;36.37;35.84;99549.78;5032899;28;1890;-62
2021/07/14 11:58:44;;;;;;;;;;;;;;;36.03;36.09;99547.59;5032990;28;866;-62
2021/07/14 12:01:10;;;;;;;;;;;;;;;36.62;35.52;99546.88;5032801;28;855;-62
2021/07/14 12:03:38;;;;;;;;;;;;;;;37.08;34.65;99552.06;5032884;28;810;-63
2021/07/14 12:06:23;;;;;;;;;;;;;;;36.54;35.68;99551.91;5032705;28;869;-62
2021/07/14 12:08:49;;;;;;;;;;;;;;;36.57;35.54;99551.50;5032730;28;850;-62
2021/07/14 12:11:19;;;;;;;;;;;;;;;36.89;35.63;99552.66;5032716;28;886;-62
2021/07/14 12:13:48;;;;;;;;;;;;;;;37.24;35.20;99558.41;5032431;28;1585;-63
2021/07/14 12:16:30;;;;;;;;;;;;;;;37.23;34.28;99544.59;5031527;28;1981;-63
2021/07/14 12:18:57;;;;;;;;;;;;;;;37.07;34.49;99555.53;5032622;28;884;-63
2021/07/14 12:21:38;;;;;;;;;;;;;;;36.97;34.51;99547.59;5032437;28;921;-62
2021/07/14 12:24:07;;;;;;;;;;;;;;;36.67;34.76;99542.22;5032459;28;806;-63
2021/07/14 12:26:34;;;;;;;;;;;;;;;36.48;35.17;99540.66;5032630;28;823;-63
2021/07/14 12:29:20;;;;;;;;;;;;;;;36.98;34.90;99540.47;5032624;28;831;-64
2021/07/14 12:31:48;;;;;;;;;;;;;;;36.91;34.78;99543.44;5032324;28;1438;-63
2021/07/14 12:34:20;;;;;;;;;;;;;;;35.21;36.87;99543.34;5032276;28;898;-63
2021/07/14 12:36:47;;;;;;;;;;;;;;;34.46;38.66;99541.66;5032142;28;1953;-63
2021/07/14 12:39:14;;;;;;;;;;;;;;;35.28;38.19;99540.44;5032309;28;806;-62
2021/07/14 12:41:39;;;;;;;;;;;;;;;36.19;36.59;99540.38;5032232;28;857;-62
2021/07/14 12:44:09;;;;;;;;;;;;;;;36.92;35.29;99527.72;5032477;28;790;-62
2021/07/14 12:46:36;;;;;;;;;;;;;;;37.56;34.75;99531.47;5031997;28;945;-62
2021/07/14 12:49:15;;;;;;;;;;;;;;;37.68;34.33;99525.88;5032120;28;884;-62
2021/07/14 12:52:01;;;;;;;;;;;;;;;36.99;34.60;99539.09;5032067;28;810;-62
2021/07/14 12:54:28;;;;;;;;;;;;;;;36.72;34.36;99530.44;5031786;28;1136;-62
2021/07/14 12:56:55;;;;;;;;;;;;;;;37.28;33.58;99524.16;5031838;28;1898;-63
2021/07/14 12:59:23;;;;;;;;;;;;;;;37.90;33.27;99529.75;5032182;28;908;-62
2021/07/14 13:01:50;;;;;;;;;;;;;;;38.16;32.84;99530.31;5031833;28;854;-63
2021/07/14 13:04:17;;;;;;;;;;;;;;;37.53;33.09;99526.84;5031858;28;874;-64
2021/07/14 13:06:44;;;;;;;;;;;;;;;37.04;33.83;99522.16;5031694;28;810;-64
2021/07/14 13:09:11;;;;;;;;;;;;;;;37.06;34.72;99525.22;5031664;28;922;-65
2021/07/14 13:11:38;;;;;;;;;;;;;;;36.95;34.89;99530.13;5031662;28;890;-63
2021/07/14 13:14:06;;;;;;;;;;;;;;;37.09;35.42;99521.16;5031635;28;1337;-62
2021/07/14 13:16:39;;;;;;;;;;;;;;;37.53;34.29;99526.84;5031628;28;1918;-62
2021/07/14 13:19:15;;;;;;;;;;;;;;;37.86;33.96;99522.91;5031951;28;849;-62
2021/07/14 13:21:42;;;;;;;;;;;;;;;37.95;33.69;99519.28;5031594;28;834;-64
2021/07/14 13:24:08;;;;;;;;;;;;;;;37.58;33.99;99519.34;5031625;28;822;-64
2021/07/14 13:26:35;;;;;;;;;;;;;;;36.85;35.08;99517.81;5031247;28;1031;-63
2021/07/14 13:29:02;;;;;;;;;;;;;;;36.33;36.02;99509.91;5031537;28;791;-63